KBLH

Details ICAO KBLH (BLH)
Name BLYTHE
Region United States
Timezone America/Los_Angeles (UTC-7.0)
Plans Departing 13
Arriving 21
Stats Elevation 399 ft / 122 m (AMSL)
Location 33.619300° -114.717000°
Runways 2
Magnetic Variation 11.032° E
Sunrise 2018-10-18 13:47:09 UTC / 2018-10-18 06:47:09 Local
Sunset 2018-10-19 01:03:06 UTC / 2018-10-18 18:03:06 Local
Advertisement - Login to hide

Runways

ID Width Length Bearing (true/mag) Surface Threshold Overrun Markings Lighting
08 150 ft / 46 m 6,531 ft / 1,991 m 90.21° / 79.18° ASPHALT 0 ft / 0 m 769 ft / 234 m APP EDGE THRESHOLD
17 100 ft / 30 m 5,816 ft / 1,773 m 180.22° / 169.19° ASPHALT 0 ft / 0 m 212 ft / 65 m APP EDGE THRESHOLD
26 150 ft / 46 m 6,531 ft / 1,991 m 270.22° / 259.19° ASPHALT 0 ft / 0 m 424 ft / 129 m APP EDGE THRESHOLD
35 100 ft / 30 m 5,816 ft / 1,773 m 0.22° / 349.19° ASPHALT 0 ft / 0 m 200 ft / 61 m APP EDGE THRESHOLD

Map

Weather


0- 5 10 15 20 25 30 35+ Temperature / °C

Clouds and Precipitation
Forecast for 2018-10-19 06:00 UTC. Updated 4 hours ago

Ground ~20,000 ft ~40,000 ft Winds

METAR

KBLH 190652Z AUTO 34010KT 10SM CLR 20/03 A3000 RMK AO2 SLP153 T02000028

TAF

KBLH 190523Z 1906/2006 35009KT P6SM SKC

Frequencies

Recorded 120.17 MHz ASOS
Unicom 122.80 MHz CTAF/UNICOM
Warning: Do not use this data for real-world aviation or navigation. No guarantee of current accuracy is given.